createdAt,value
2018-03-21T00:02:38.282Z,12.7
2018-03-21T00:12:37.237Z,12.7
2018-03-21T00:22:36.377Z,13.1
2018-03-21T00:32:35.571Z,13.1
2018-03-21T00:42:34.822Z,13
2018-03-21T00:52:33.987Z,13.1
2018-03-21T01:02:33.374Z,13.1
2018-03-21T01:12:32.413Z,13
2018-03-21T01:22:31.846Z,12.9
2018-03-21T01:32:30.843Z,12.4
2018-03-21T01:42:30.066Z,12.8
2018-03-21T01:52:29.497Z,12.5
2018-03-21T02:02:28.473Z,12.8
2018-03-21T02:12:27.649Z,12.6
2018-03-21T02:22:27.029Z,12.5
2018-03-21T02:32:26.173Z,12.9
2018-03-21T02:42:25.635Z,13
2018-03-21T02:52:24.552Z,12.5
2018-03-21T03:02:23.739Z,12.7
2018-03-21T03:12:22.908Z,12.5
2018-03-21T03:22:22.149Z,12.7
2018-03-21T03:32:21.556Z,13.1
2018-03-21T03:42:20.577Z,12.7
2018-03-21T03:52:19.704Z,13.1
2018-03-21T04:02:19.292Z,12.8
2018-03-21T04:12:18.100Z,13.1
2018-03-21T04:22:17.537Z,13
2018-03-21T04:32:16.617Z,12.5
2018-03-21T04:42:16.003Z,12.9
2018-03-21T04:52:14.983Z,12.8
2018-03-21T05:02:14.295Z,12.8
2018-03-21T05:12:13.641Z,13.1
2018-03-21T05:22:12.559Z,13.1
2018-03-21T05:32:11.793Z,12.8
2018-03-21T05:42:11.073Z,12.7
2018-03-21T05:52:10.229Z,12.6
2018-03-21T06:02:09.465Z,12.8
2018-03-21T06:12:08.729Z,13.2
2018-03-21T06:22:07.811Z,13
2018-03-21T06:32:07.050Z,12.8
2018-03-21T06:42:06.220Z,13.1
2018-03-21T06:52:05.799Z,13
2018-03-21T07:02:04.967Z,12.7
2018-03-21T07:12:04.138Z,12.8
2018-03-21T07:22:03.423Z,12.8
2018-03-21T07:32:02.299Z,12.6
2018-03-21T07:42:01.542Z,13
2018-03-21T07:52:00.913Z,12.8
2018-03-21T08:01:59.950Z,12.6
2018-03-21T08:11:59.154Z,13.9
2018-03-21T08:21:58.353Z,13.6
2018-03-21T08:31:57.578Z,13.3
2018-03-21T08:41:56.767Z,13.3
2018-03-21T08:51:55.942Z,13.2
2018-03-21T09:01:55.112Z,13.7
2018-03-21T09:11:54.362Z,13.9
2018-03-21T09:21:53.603Z,13.5
2018-03-21T09:31:52.790Z,13.7
2018-03-21T09:41:51.923Z,13
2018-03-21T09:51:51.407Z,13.6
2018-03-21T10:01:50.717Z,14.2
2018-03-21T10:11:49.680Z,14.7
2018-03-21T10:21:49.069Z,14.7
2018-03-21T10:31:48.082Z,14
2018-03-21T10:41:47.541Z,13.9
2018-03-21T10:51:46.408Z,14
2018-03-21T11:01:45.607Z,14.6
2018-03-21T11:11:44.833Z,14.2
2018-03-21T11:21:44.311Z,14
2018-03-21T11:31:43.184Z,14
2018-03-21T11:41:42.388Z,14.7
2018-03-21T11:51:41.600Z,14.3
2018-03-21T12:01:40.854Z,14.2
2018-03-21T12:11:40.084Z,14.4
2018-03-21T12:21:39.266Z,14.2
2018-03-21T12:31:38.831Z,13.9
2018-03-21T12:41:37.721Z,14.1
2018-03-21T12:51:36.966Z,14.6
2018-03-21T13:01:36.171Z,14.7
2018-03-21T13:11:35.327Z,14.7
2018-03-21T13:21:34.445Z,14.3
2018-03-21T13:31:33.768Z,13.9
2018-03-21T13:41:32.889Z,14.6
2018-03-21T13:51:32.065Z,14
2018-03-21T14:01:31.357Z,13.3
2018-03-21T14:11:30.807Z,13
2018-03-21T14:21:30.318Z,13.5
2018-03-21T14:31:28.961Z,13.5
2018-03-21T14:41:28.103Z,13.6
2018-03-21T14:51:27.422Z,13.2
2018-03-21T15:01:26.561Z,13.5
2018-03-21T15:11:26.090Z,12.9
2018-03-21T15:21:25.010Z,13.2
2018-03-21T15:31:24.304Z,13.1
2018-03-21T15:41:23.371Z,12.6
2018-03-21T15:51:22.704Z,13.1
2018-03-21T16:01:21.738Z,12.9
2018-03-21T16:11:21.215Z,12.7
2018-03-21T16:21:20.157Z,12.6
2018-03-21T16:31:19.743Z,12.9
2018-03-21T16:41:18.561Z,12.8
2018-03-21T16:51:17.765Z,13.2
2018-03-21T17:01:17.106Z,13
2018-03-21T17:11:16.322Z,12.9
2018-03-21T17:21:15.477Z,13.1
2018-03-21T17:31:14.668Z,12.5
2018-03-21T17:41:13.859Z,12.8
2018-03-21T17:51:13.097Z,12.8
2018-03-21T18:01:12.267Z,12.8
2018-03-21T18:11:11.727Z,12.4
2018-03-21T18:21:10.983Z,12.9
2018-03-21T18:31:09.928Z,12.9
2018-03-21T18:41:09.390Z,13
2018-03-21T18:51:08.261Z,12.8
2018-03-21T19:01:07.876Z,12.5
2018-03-21T19:11:07.108Z,12.6
2018-03-21T19:21:05.884Z,13
2018-03-21T19:31:05.091Z,13.1
2018-03-21T19:41:04.346Z,12.9
2018-03-21T19:51:03.511Z,13.2
2018-03-21T20:01:03.079Z,12.9
2018-03-21T20:11:02.006Z,12.6
2018-03-21T20:21:01.320Z,12.6
2018-03-21T20:31:00.418Z,13.2
2018-03-21T20:40:59.702Z,13
2018-03-21T20:50:59.141Z,12.7
2018-03-21T21:00:58.202Z,13.1
2018-03-21T21:10:57.294Z,13.1
2018-03-21T21:20:56.624Z,12.9
2018-03-21T21:30:55.754Z,12.7
2018-03-21T21:40:54.861Z,12.9
2018-03-21T21:50:54.120Z,12.6
2018-03-21T22:00:53.289Z,12.6
2018-03-21T22:10:52.469Z,12.6
2018-03-21T22:20:51.747Z,12.5
2018-03-21T22:30:51.201Z,13.1
2018-03-21T22:40:50.108Z,13
2018-03-21T22:50:49.307Z,12.9
2018-03-21T23:00:48.537Z,12.4
2018-03-21T23:10:47.703Z,12.6
2018-03-21T23:20:47.034Z,12.5
2018-03-21T23:30:46.288Z,13.2
2018-03-21T23:40:45.358Z,13.1
2018-03-21T23:50:44.693Z,13
